Map

Track Data

SID SEASON NUMBER BASIN SUBBASIN NAME ISO_TIME NATURE LAT LON WMO_WIND WMO_PRES WMO_AGENCY TRACK_TYPE DIST2LAND LANDFALL IFLAG USA_AGENCY USA_ATCF_ID USA_LAT USA_LON USA_RECORD USA_STATUS USA_WIND USA_PRES USA_SSHS USA_R34_NE USA_R34_SE USA_R34_SW USA_R34_NW USA_R50_NE USA_R50_SE USA_R50_SW USA_R50_NW USA_R64_NE USA_R64_SE USA_R64_SW USA_R64_NW USA_POCI USA_ROCI USA_RMW USA_EYE TOKYO_LAT TOKYO_LON TOKYO_GRADE TOKYO_WIND TOKYO_PRES TOKYO_R50_DIR TOKYO_R50_LONG TOKYO_R50_SHORT TOKYO_R30_DIR TOKYO_R30_LONG TOKYO_R30_SHORT TOKYO_LAND CMA_LAT CMA_LON CMA_CAT CMA_WIND CMA_PRES HKO_LAT HKO_LON HKO_CAT HKO_WIND HKO_PRES NEWDELHI_LAT NEWDELHI_LON NEWDELHI_GRADE NEWDELHI_WIND NEWDELHI_PRES NEWDELHI_CI NEWDELHI_DP NEWDELHI_POCI REUNION_LAT REUNION_LON REUNION_TYPE REUNION_WIND REUNION_PRES REUNION_TNUM REUNION_CI REUNION_RMW REUNION_R34_NE REUNION_R34_SE REUNION_R34_SW REUNION_R34_NW REUNION_R50_NE REUNION_R50_SE REUNION_R50_SW REUNION_R50_NW REUNION_R64_NE REUNION_R64_SE REUNION_R64_SW REUNION_R64_NW BOM_LAT BOM_LON BOM_TYPE BOM_WIND BOM_PRES BOM_TNUM BOM_CI BOM_RMW BOM_R34_NE BOM_R34_SE BOM_R34_SW BOM_R34_NW BOM_R50_NE BOM_R50_SE BOM_R50_SW BOM_R50_NW BOM_R64_NE BOM_R64_SE BOM_R64_SW BOM_R64_NW BOM_ROCI BOM_POCI BOM_EYE BOM_POS_METHOD BOM_PRES_METHOD NADI_LAT NADI_LON NADI_CAT NADI_WIND NADI_PRES WELLINGTON_LAT WELLINGTON_LON WELLINGTON_WIND WELLINGTON_PRES DS824_LAT DS824_LON DS824_STAGE DS824_WIND DS824_PRES TD9636_LAT TD9636_LON TD9636_STAGE TD9636_WIND TD9636_PRES TD9635_LAT TD9635_LON TD9635_WIND TD9635_PRES TD9635_ROCI NEUMANN_LAT NEUMANN_LON NEUMANN_CLASS NEUMANN_WIND NEUMANN_PRES MLC_LAT MLC_LON MLC_CLASS MLC_WIND MLC_PRES USA_GUST BOM_GUST BOM_GUST_PER REUNION_GUST REUNION_GUST_PER USA_SEAHGT USA_SEARAD_NE USA_SEARAD_SE USA_SEARAD_SW USA_SEARAD_NW STORM_SPEED STORM_DIR
1867268N30303 1867 21 NA NA NOT_NAMED 1867-09-24 12:00:00 TS 29.5000 -57.5000 main 1487 1487 _____________O -1 29.5000 -57.5000 TS 35 7 0
1867268N30303 1867 21 NA NA NOT_NAMED 1867-09-24 15:00:00 TS 29.8500 -57.5124 main 1523 1514 _____________P -1 29.8500 -57.5124 TS 35 7 0
1867268N30303 1867 21 NA NA NOT_NAMED 1867-09-24 18:00:00 TS 30.2000 -57.5000 main 1551 1551 _____________O -1 30.2000 -57.5000 TS 35 7 5
1867268N30303 1867 21 NA NA NOT_NAMED 1867-09-24 21:00:00 TS 30.5500 -57.4501 main 1588 1565 _____________P -1 30.5500 -57.4501 TS 35 7 7
1867268N30303 1867 21 NA NA NOT_NAMED 1867-09-25 00:00:00 TS 30.9000 -57.4000 main 1565 1535 _____________O -1 30.9000 -57.4000 TS 35 7 3
1867268N30303 1867 21 NA NA NOT_NAMED 1867-09-25 03:00:00 TS 31.2500 -57.3998 main 1535 1494 _____________P -1 31.2500 -57.3998 TS 35 7 0
1867268N30303 1867 21 NA NA NOT_NAMED 1867-09-25 06:00:00 TS 31.6000 -57.4000 main 1494 1464 _____________O -1 31.6000 -57.4000 TS 35 7 3
1867268N30303 1867 21 NA NA NOT_NAMED 1867-09-25 09:00:00 TS 31.9425 -57.3649 main 1464 1428 _____________P -1 31.9425 -57.3649 TS 35 7 7
1867268N30303 1867 21 NA NA NOT_NAMED 1867-09-25 12:00:00 TS 32.3000 -57.3000 main 1428 1393 _____________O -1 32.3000 -57.3000 TS 35 8 10
1867268N30303 1867 21 NA NA NOT_NAMED 1867-09-25 15:00:00 TS 32.7000 -57.2001 main 1393 1358 _____________P -1 32.7000 -57.2001 TS 37 8 12
1867268N30303 1867 21 NA NA NOT_NAMED 1867-09-25 18:00:00 TS 33.1000 -57.1000 main 1358 1329 _____________O -1 33.1000 -57.1000 TS 40 8 10
1867268N30303 1867 21 NA NA NOT_NAMED 1867-09-25 21:00:00 TS 33.4575 -57.0423 main 1324 1295 _____________P -1 33.4575 -57.0423 TS 40 7 6
1867268N30303 1867 21 NA NA NOT_NAMED 1867-09-26 00:00:00 TS 33.8000 -57.0000 main 1295 1267 _____________O -1 33.8000 -57.0000 TS 40 7 6
1867268N30303 1867 21 NA NA NOT_NAMED 1867-09-26 03:00:00 TS 34.1500 -56.9500 main 1262 1234 _____________P -1 34.1500 -56.9500 TS 40 7 6
1867268N30303 1867 21 NA NA NOT_NAMED 1867-09-26 06:00:00 TS 34.5000 -56.9000 main 1234 1206 _____________O -1 34.5000 -56.9000 TS 40 7 4
1867268N30303 1867 21 NA NA NOT_NAMED 1867-09-26 09:00:00 TS 34.8497 -56.9092 main 1206 1170 _____________P -1 34.8497 -56.9092 TS 40 7 6
1867268N30303 1867 21 NA NA NOT_NAMED 1867-09-26 12:00:00 TS 35.2000 -56.8000 main 1170 1146 _____________O -1 35.2000 -56.8000 TS 40 8 30
1867268N30303 1867 21 NA NA NOT_NAMED 1867-09-26 15:00:00 TS 35.5578 -56.4105 main 1139 1119 _____________P -1 35.5578 -56.4105 TS 40 10 46
1867268N30303 1867 21 NA NA NOT_NAMED 1867-09-26 18:00:00 TS 35.9000 -55.9000 main 1123 1105 _____________O -1 35.9000 -55.9000 TS 40 10 50
1867268N30303 1867 21 NA NA NOT_NAMED 1867-09-26 21:00:00 TS 36.2073 -55.4495 main 1109 1090 _____________P -1 36.2073 -55.4495 TS 40 9 50
1867268N30303 1867 21 NA NA NOT_NAMED 1867-09-27 00:00:00 TS 36.5000 -55.0000 main 1093 1080 _____________O -1 36.5000 -55.0000 TS 40 9 51
1867268N30303 1867 21 NA NA NOT_NAMED 1867-09-27 03:00:00 TS 36.7998 -54.5496 main 1084 1057 _____________P -1 36.7998 -54.5496 TS 42 9 50
1867268N30303 1867 21 NA NA NOT_NAMED 1867-09-27 06:00:00 TS 37.1000 -54.1000 main 1057 1023 _____________O -1 37.1000 -54.1000 TS 45 9 47
1867268N30303 1867 21 NA NA NOT_NAMED 1867-09-27 09:00:00 TS 37.4367 -53.6951 main 1023 989 _____________P -1 37.4367 -53.6951 TS 45 9 50
1867268N30303 1867 21 NA NA NOT_NAMED 1867-09-27 12:00:00 TS 37.7000 -53.2000 main 989 979 _____________O -1 37.7000 -53.2000 TS 45 10 70
1867268N30303 1867 21 NA NA NOT_NAMED 1867-09-27 15:00:00 TS 37.7878 -52.4942 main 980 980 _____________P -1 37.7878 -52.4942 TS 45 12 85
1867268N30303 1867 21 NA NA NOT_NAMED 1867-09-27 18:00:00 TS 37.8000 -51.7000 main 986 986 _____________O -1 37.8000 -51.7000 TS 45 12 87
1867268N30303 1867 21 NA NA NOT_NAMED 1867-09-27 21:00:00 TS 37.8495 -50.9499 main 996 985 _____________P -1 37.8495 -50.9499 TS 45 12 85
1867268N30303 1867 21 NA NA NOT_NAMED 1867-09-28 00:00:00 TS 37.9000 -50.2000 main 998 998 _____________O -1 37.9000 -50.2000 TS 45 12 85
1867268N30303 1867 21 NA NA NOT_NAMED 1867-09-28 03:00:00 TS 37.9497 -49.4424 main 1016 1005 _____________P -1 37.9497 -49.4424 TS 45 12 85
1867268N30303 1867 21 NA NA NOT_NAMED 1867-09-28 06:00:00 TS 38.0000 -48.7000 main 1024 1024 _____________O -1 38.0000 -48.7000 TS 45 12 85
1867268N30303 1867 21 NA NA NOT_NAMED 1867-09-28 09:00:00 TS 38.0577 -47.9402 main 1039 1039 _____________P -1 38.0577 -47.9402 TS 45 11 85
1867268N30303 1867 21 NA NA NOT_NAMED 1867-09-28 12:00:00 TS 38.1000 -47.3000 main 1060 1058 _____________O -1 38.1000 -47.3000 TS 45 8 81
1867268N30303 1867 21 NA NA NOT_NAMED 1867-09-28 15:00:00 TS 38.1892 -46.8984 main 1066 1066 _____________P -1 38.1892 -46.8984 TS 47 5 90
1867268N30303 1867 21 NA NA NOT_NAMED 1867-09-28 18:00:00 TS 38.1000 -46.6000 main 1088 1088 _____________O -1 38.1000 -46.6000 TS 50 8 140
1867268N30303 1867 21 NA NA NOT_NAMED 1867-09-28 21:00:00 TS 37.5874 -46.2487 main 1153 1153 _____________P -1 37.5874 -46.2487 TS 50 12 153
1867268N30303 1867 21 NA NA NOT_NAMED 1867-09-29 00:00:00 TS 37.0000 -45.9000 main 1225 1225 _____________O -1 37.0000 -45.9000 TS 50 10 148
1867268N30303 1867 21 NA NA NOT_NAMED 1867-09-29 03:00:00 TS 36.7049 -45.5509 main 1266 1266 _____________P -1 36.7049 -45.5509 TS 50 8 132
1867268N30303 1867 21 NA NA NOT_NAMED 1867-09-29 06:00:00 TS 36.5000 -45.2000 main 1303 1303 _____________O -1 36.5000 -45.2000 TS 50 7 129
1867268N30303 1867 21 NA NA NOT_NAMED 1867-09-29 09:00:00 TS 36.2573 -44.8579 main 1335 1335 _____________P -1 36.2573 -44.8579 TS 50 8 131
1867268N30303 1867 21 NA NA NOT_NAMED 1867-09-29 12:00:00 TS 36.0000 -44.5000 main 1381 1381 _____________O -1 36.0000 -44.5000 TS 50 8 132
1867268N30303 1867 21 NA NA NOT_NAMED 1867-09-29 15:00:00 TS 35.7075 -44.1000 main 1428 1428 _____________P -1 35.7075 -44.1000 TS 50 9 133
1867268N30303 1867 21 NA NA NOT_NAMED 1867-09-29 18:00:00 TS 35.4000 -43.7000 main 1475 1475 _____________O -1 35.4000 -43.7000 TS 50 9 135
1867268N30303 1867 21 NA NA NOT_NAMED 1867-09-29 21:00:00 TS 35.0998 -43.3504 main 1517 1517 _____________P -1 35.0998 -43.3504 TS 50 8 136
1867268N30303 1867 21 NA NA NOT_NAMED 1867-09-30 00:00:00 TS 34.8000 -43.0000 main 1565 1565 _____________O -1 34.8000 -43.0000 TS 50 9 134
1867268N30303 1867 21 NA NA NOT_NAMED 1867-09-30 03:00:00 TS 34.5000 -42.6001 main 1612 1612 _____________P -1 34.5000 -42.6001 TS 50 9 132
1867268N30303 1867 21 NA NA NOT_NAMED 1867-09-30 06:00:00 TS 34.2000 -42.2000 main 1659 1659 _____________O -1 34.2000 -42.2000 TS 50 9 137
1867268N30303 1867 21 NA NA NOT_NAMED 1867-09-30 09:00:00 TS 33.8323 -41.8495 main 1716 1716 _____________P -1 33.8323 -41.8495 TS 50 8 136
1867268N30303 1867 21 NA NA NOT_NAMED 1867-09-30 12:00:00 TS 33.6000 -41.5000 main 1750 1750 _____________O -1 33.6000 -41.5000 TS 50 6 104
1867268N30303 1867 21 NA NA NOT_NAMED 1867-09-30 15:00:00 TS 33.6825 -41.1008 main 1759 1755 _____________P -1 33.6825 -41.1008 TS 50 7 66
1867268N30303 1867 21 NA NA NOT_NAMED 1867-09-30 18:00:00 TS 33.9000 -40.7000 main 1760 1756 _____________O -1 33.9000 -40.7000 TS 50 7 59
1867268N30303 1867 21 NA NA NOT_NAMED 1867-09-30 21:00:00 TS 34.0498 -40.3498 main 1771 1762 _____________P -1 34.0498 -40.3498 TS 50 7 63
1867268N30303 1867 21 NA NA NOT_NAMED 1867-10-01 00:00:00 TS 34.2000 -40.0000 main 1768 1764 _____________O -1 34.2000 -40.0000 TS 50 7 64
1867268N30303 1867 21 NA NA NOT_NAMED 1867-10-01 03:00:00 TS 34.3575 -39.6000 main 1771 1771 _____________P -1 34.3575 -39.6000 TS 50 7 66
1867268N30303 1867 21 NA NA NOT_NAMED 1867-10-01 06:00:00 TS 34.5000 -39.2000 main 1784 1784 _____________O -1 34.5000 -39.2000 TS 50 7 71
1867268N30303 1867 21 NA NA NOT_NAMED 1867-10-01 09:00:00 TS 34.5699 -38.8344 main 1797 1797 _____________P -1 34.5699 -38.8344 TS 50 6 71
1867268N30303 1867 21 NA NA NOT_NAMED 1867-10-01 12:00:00 TS 34.7000 -38.5000 main 1805 1796 _____________O -1 34.7000 -38.5000 TS 50 7 50
1867268N30303 1867 21 NA NA NOT_NAMED 1867-10-01 15:00:00 TS 35.0199 -38.1853 main 1796 1780 _____________P -1 35.0199 -38.1853 TS 50 9 35
1867268N30303 1867 21 NA NA NOT_NAMED 1867-10-01 18:00:00 TS 35.4000 -37.9000 main 1780 1767 _____________O -1 35.4000 -37.9000 TS 50 8 33
1867268N30303 1867 21 NA NA NOT_NAMED 1867-10-01 21:00:00 TS 35.6998 -37.6495 main 1773 1760 _____________P -1 35.6998 -37.6495 TS 50 7 34
1867268N30303 1867 21 NA NA NOT_NAMED 1867-10-02 00:00:00 TS 36.0000 -37.4000 main 1760 1748 _____________O -1 36.0000 -37.4000 TS 50 8 34
1867268N30303 1867 21 NA NA NOT_NAMED 1867-10-02 03:00:00 TS 36.3500 -37.1001 main 1747 1742 _____________P -1 36.3500 -37.1001 TS 50 9 35
1867268N30303 1867 21 NA NA NOT_NAMED 1867-10-02 06:00:00 TS 36.7000 -36.8000 main 1742 1731 _____________O -1 36.7000 -36.8000 TS 50 8 34
1867268N30303 1867 21 NA NA NOT_NAMED 1867-10-02 09:00:00 TS 36.9998 -36.5495 main 1737 1727 _____________P -1 36.9998 -36.5495 TS 50 7 34
1867268N30303 1867 21 NA NA NOT_NAMED 1867-10-02 12:00:00 TS 37.3000 -36.3000 main 1727 1717 _____________O -1 37.3000 -36.3000 TS 50 8 34
1867268N30303 1867 21 NA NA NOT_NAMED 1867-10-02 15:00:00 TS 37.6424 -36.0148 main 1724 1714 _____________P -1 37.6424 -36.0148 TS 50 8 34
1867268N30303 1867 21 NA NA NOT_NAMED 1867-10-02 18:00:00 TS 38.0000 -35.7000 main 1714 1706 _____________O -1 38.0000 -35.7000 TS 50 9 36
1867268N30303 1867 21 NA NA NOT_NAMED 1867-10-02 21:00:00 TS 38.3500 -35.3573 main 1713 1713 _____________P -1 38.3500 -35.3573 TS 50 9 38
1867268N30303 1867 21 NA NA NOT_NAMED 1867-10-03 00:00:00 TS 38.7000 -35.0000 main 1713 1713 _____________O -1 38.7000 -35.0000 TS 50 9 38
1867268N30303 1867 21 NA NA NOT_NAMED 1867-10-03 03:00:00 TS 39.0575 -34.6424 main 1714 1714 _____________P -1 39.0575 -34.6424 TS 50 9 38
1867268N30303 1867 21 NA NA NOT_NAMED 1867-10-03 06:00:00 TS 39.4000 -34.3000 main 1715 1715 _____________O -1 39.4000 -34.3000 TS 50 8 38
1867268N30303 1867 21 NA NA NOT_NAMED 1867-10-03 09:00:00 TS 39.6998 -33.9993 main 1718 1718 _____________P -1 39.6998 -33.9993 TS 50 8 38
1867268N30303 1867 21 NA NA NOT_NAMED 1867-10-03 12:00:00 TS 40.0000 -33.7000 main 1720 1720 _____________O -1 40.0000 -33.7000 TS 50 8 37
1867268N30303 1867 21 NA NA NOT_NAMED 1867-10-03 15:00:00 TS 40.3378 -33.3635 main 1722 1722 _____________P -1 40.3378 -33.3635 TS 47 9 37
1867268N30303 1867 21 NA NA NOT_NAMED 1867-10-03 18:00:00 TS 40.7000 -33.0000 main 1726 _____________O -1 40.7000 -33.0000 TS 45 9 37

About IBTrACS Database

This database is a web-friendly format of International Best Track Archive for Climate Stewardship (IBTrACS), a global best track data archive curated by NOAA dating back to 1842.

Updated: 2021-10-25